createdAt,value
2018-07-15T00:03:02.507Z,15.51
2018-07-15T00:09:08.602Z,15.21
2018-07-15T00:15:14.334Z,15.42
2018-07-15T00:21:20.200Z,15.17
2018-07-15T00:27:26.874Z,15.14
2018-07-15T00:33:32.677Z,15.02
2018-07-15T00:39:38.717Z,14.91
2018-07-15T00:45:44.594Z,14.85
2018-07-15T00:51:50.658Z,14.63
2018-07-15T00:57:56.135Z,14.62
2018-07-15T01:04:01.901Z,14.61
2018-07-15T01:10:07.949Z,14.42
2018-07-15T01:16:14.240Z,14.40
2018-07-15T01:22:21.121Z,14.35
2018-07-15T01:28:27.189Z,14.30
2018-07-15T01:34:33.128Z,14.20
2018-07-15T01:40:38.765Z,14.15
2018-07-15T01:46:44.744Z,14.28
2018-07-15T01:52:51.926Z,14.21
2018-07-15T01:58:57.728Z,14.12
2018-07-15T02:05:03.321Z,14.03
2018-07-15T02:11:09.061Z,13.95
2018-07-15T02:17:14.659Z,13.85
2018-07-15T02:23:20.727Z,14.04
2018-07-15T02:29:27.495Z,13.86
2018-07-15T02:35:33.172Z,13.66
2018-07-15T02:41:38.963Z,13.75
2018-07-15T02:47:45.089Z,13.64
2018-07-15T02:53:51.376Z,13.67
2018-07-15T02:59:57.511Z,13.57
2018-07-15T03:06:03.140Z,13.53
2018-07-15T03:12:08.776Z,13.40
2018-07-15T03:18:14.524Z,13.32
2018-07-15T03:24:20.438Z,13.52
2018-07-15T03:30:26.055Z,13.52
2018-07-15T03:36:32.018Z,13.36
2018-07-15T03:42:37.713Z,13.11
2018-07-15T03:48:43.923Z,13.18
2018-07-15T03:54:50.222Z,13.06
2018-07-15T04:00:56.314Z,13.10
2018-07-15T04:07:02.340Z,13.20
2018-07-15T04:13:08.449Z,13.37
2018-07-15T04:19:14.326Z,13.43
2018-07-15T04:25:20.136Z,13.54
2018-07-15T04:31:26.570Z,13.72
2018-07-15T04:37:32.364Z,13.88
2018-07-15T04:43:38.236Z,14.09
2018-07-15T04:49:43.884Z,14.26
2018-07-15T04:55:50.257Z,14.43
2018-07-15T05:01:56.283Z,14.76
2018-07-15T05:08:01.997Z,14.92
2018-07-15T05:14:08.308Z,15.02
2018-07-15T05:20:14.070Z,15.43
2018-07-15T05:26:19.903Z,15.42
2018-07-15T05:32:26.014Z,15.72
2018-07-15T05:38:31.630Z,15.95
2018-07-15T05:44:37.312Z,16.17
2018-07-15T05:50:43.053Z,16.36
2018-07-15T05:56:50.067Z,16.69
2018-07-15T06:02:56.342Z,17.10
2018-07-15T06:09:01.994Z,16.95
2018-07-15T06:15:07.749Z,17.12
2018-07-15T06:21:13.590Z,17.51
2018-07-15T06:27:19.259Z,17.72
2018-07-15T06:33:25.838Z,18.38
2018-07-15T06:39:31.750Z,18.93
2018-07-15T06:45:37.421Z,19.16
2018-07-15T06:51:43.104Z,19.49
2018-07-15T06:57:49.037Z,19.95
2018-07-15T07:03:55.824Z,20.27
2018-07-15T07:10:01.516Z,20.39
2018-07-15T07:16:07.564Z,21.13
2018-07-15T07:22:13.336Z,21.35
2018-07-15T07:28:19.220Z,21.85
2018-07-15T07:34:25.072Z,21.85
2018-07-15T07:40:30.742Z,21.96
2018-07-15T07:46:36.439Z,21.82
2018-07-15T07:52:42.164Z,22.38
2018-07-15T07:58:47.892Z,22.43
2018-07-15T08:04:54.038Z,22.91
2018-07-15T08:10:59.784Z,23.31
2018-07-15T08:17:11.799Z,23.66
2018-07-15T08:23:17.541Z,23.68
2018-07-15T08:29:23.745Z,23.88
2018-07-15T08:35:29.358Z,24.08
2018-07-15T08:41:35.344Z,24.58
2018-07-15T08:47:41.090Z,25.34
2018-07-15T08:53:46.951Z,25.70
2018-07-15T08:59:52.977Z,26.17
2018-07-15T09:05:58.626Z,26.00
2018-07-15T09:12:04.954Z,26.09
2018-07-15T09:18:10.735Z,26.79
2018-07-15T09:24:16.821Z,27.04
2018-07-15T09:30:23.628Z,27.49
2018-07-15T09:36:29.413Z,26.89
2018-07-15T09:42:35.095Z,27.15
2018-07-15T09:48:40.853Z,28.03
2018-07-15T09:54:46.518Z,28.01
2018-07-15T10:00:58.043Z,28.09
2018-07-15T10:07:03.840Z,28.21
2018-07-15T10:13:09.920Z,28.36
2018-07-15T10:19:15.562Z,28.48
2018-07-15T10:25:21.548Z,29.31
2018-07-15T10:31:27.332Z,29.58
2018-07-15T10:37:32.961Z,29.77
2018-07-15T10:43:38.796Z,29.12
2018-07-15T10:49:44.556Z,29.67
2018-07-15T10:55:50.647Z,29.67
2018-07-15T11:01:56.420Z,29.61
2018-07-15T11:08:02.243Z,29.29
2018-07-15T11:14:07.911Z,29.80
2018-07-15T11:20:13.580Z,30.36
2018-07-15T11:26:19.806Z,30.68
2018-07-15T11:32:25.450Z,30.47
2018-07-15T11:38:31.146Z,30.40
2018-07-15T11:44:36.905Z,29.99
2018-07-15T11:50:42.561Z,30.63
2018-07-15T11:56:48.275Z,31.10
2018-07-15T12:02:53.904Z,31.90
2018-07-15T12:08:59.529Z,31.95
2018-07-15T12:15:05.514Z,31.81
2018-07-15T12:21:11.209Z,32.50
2018-07-15T12:27:16.850Z,32.39
2018-07-15T12:33:23.243Z,32.69
2018-07-15T12:39:29.007Z,33.62
2018-07-15T12:45:34.658Z,33.35
2018-07-15T12:51:40.478Z,32.88
2018-07-15T12:57:46.238Z,31.93
2018-07-15T13:03:53.771Z,32.64
2018-07-15T13:09:59.660Z,33.07
2018-07-15T13:16:05.346Z,32.70
2018-07-15T13:22:11.062Z,32.38
2018-07-15T13:28:16.697Z,31.37
2018-07-15T13:34:22.648Z,31.62
2018-07-15T13:40:28.621Z,32.05
2018-07-15T13:46:34.401Z,33.89
2018-07-15T13:52:40.193Z,34.92
2018-07-15T13:58:45.832Z,35.46
2018-07-15T14:04:52.635Z,34.77
2018-07-15T14:10:58.343Z,35.10
2018-07-15T14:17:04.110Z,34.97
2018-07-15T14:23:09.741Z,36.11
2018-07-15T14:29:15.648Z,36.33
2018-07-15T14:35:21.480Z,35.43
2018-07-15T14:41:27.424Z,36.06
2018-07-15T14:47:33.853Z,34.87
2018-07-15T14:53:39.512Z,35.92
2018-07-15T14:59:46.093Z,35.91
2018-07-15T15:05:53.686Z,35.23
2018-07-15T15:11:59.372Z,35.26
2018-07-15T15:18:05.013Z,34.03
2018-07-15T15:24:10.686Z,34.63
2018-07-15T15:30:16.547Z,34.27
2018-07-15T15:36:23.001Z,35.13
2018-07-15T15:42:28.775Z,34.72
2018-07-15T15:48:34.659Z,34.35
2018-07-15T15:54:40.287Z,34.39
2018-07-15T16:00:45.960Z,34.62
2018-07-15T16:06:52.165Z,34.44
2018-07-15T16:12:57.785Z,33.46
2018-07-15T16:19:03.503Z,33.28
2018-07-15T16:25:09.209Z,32.82
2018-07-15T16:31:14.901Z,33.38
2018-07-15T16:37:22.720Z,34.12
2018-07-15T16:43:29.074Z,34.11
2018-07-15T16:49:34.697Z,37.23
2018-07-15T16:55:40.450Z,37.67
2018-07-15T17:01:46.145Z,38.27
2018-07-15T17:07:51.883Z,38.92
2018-07-15T17:13:57.639Z,38.95
2018-07-15T17:20:03.378Z,38.79
2018-07-15T17:26:09.015Z,37.54
2018-07-15T17:32:14.786Z,38.81
2018-07-15T17:38:20.733Z,39.27
2018-07-15T17:44:27.319Z,38.47
2018-07-15T17:50:32.978Z,38.21
2018-07-15T17:56:38.722Z,36.92
2018-07-15T18:02:44.380Z,37.41
2018-07-15T18:08:50.391Z,37.01
2018-07-15T18:14:56.349Z,36.67
2018-07-15T18:21:02.221Z,36.63
2018-07-15T18:27:08.031Z,35.74
2018-07-15T18:33:13.767Z,35.07
2018-07-15T18:39:19.666Z,33.76
2018-07-15T18:45:25.428Z,34.07
2018-07-15T18:51:31.071Z,32.69
2018-07-15T18:57:36.782Z,29.88
2018-07-15T19:03:42.467Z,28.47
2018-07-15T19:09:48.143Z,27.34
2018-07-15T19:15:53.828Z,26.21
2018-07-15T19:21:59.497Z,25.45
2018-07-15T19:28:05.360Z,24.90
2018-07-15T19:34:10.978Z,24.19
2018-07-15T19:40:16.759Z,23.91
2018-07-15T19:46:23.363Z,23.29
2018-07-15T19:52:29.261Z,23.30
2018-07-15T19:58:34.918Z,23.09
2018-07-15T20:04:40.622Z,22.97
2018-07-15T20:10:46.682Z,22.72
2018-07-15T20:16:53.808Z,22.47
2018-07-15T20:23:00.504Z,22.40
2018-07-15T20:29:06.287Z,22.26
2018-07-15T20:35:11.927Z,21.85
2018-07-15T20:41:17.610Z,21.57
2018-07-15T20:47:24.352Z,21.13
2018-07-15T20:53:30.075Z,20.83
2018-07-15T20:59:36.110Z,20.61
2018-07-15T21:05:41.867Z,20.36
2018-07-15T21:11:47.683Z,20.02
2018-07-15T21:17:53.594Z,19.78
2018-07-15T21:23:59.894Z,19.66
2018-07-15T21:30:05.595Z,19.43
2018-07-15T21:36:11.256Z,19.41
2018-07-15T21:42:16.995Z,19.16
2018-07-15T21:48:22.862Z,18.96
2018-07-15T21:54:28.664Z,18.95
2018-07-15T22:00:34.440Z,18.86
2018-07-15T22:06:56.768Z,18.82
2018-07-15T22:13:02.395Z,18.63
2018-07-15T22:19:08.249Z,18.34
2018-07-15T22:25:13.942Z,18.13
2018-07-15T22:31:19.660Z,18.20
2018-07-15T22:37:26.399Z,18.07
2018-07-15T22:43:32.185Z,18.07
2018-07-15T22:49:37.942Z,17.81
2018-07-15T22:55:43.680Z,17.82
2018-07-15T23:01:49.827Z,17.58
2018-07-15T23:07:56.195Z,17.74
2018-07-15T23:14:01.964Z,17.68
2018-07-15T23:20:07.650Z,17.66
2018-07-15T23:26:13.419Z,17.43
2018-07-15T23:32:19.489Z,17.25
2018-07-15T23:38:25.269Z,17.13
2018-07-15T23:44:30.899Z,17.21
2018-07-15T23:50:36.574Z,17.11
2018-07-15T23:56:42.158Z,16.91
